sensor_id;sensor_type;location;lat;lon;timestamp;pressure;altitude;pressure_sealevel;temperature;humidity
34921;BME280;21128;50.016;20.002;2022-07-10T00:02:12;98944.64;;;14.53;94.08
34921;BME280;21128;50.016;20.002;2022-07-10T00:04:45;98948.80;;;14.55;94.56
34921;BME280;21128;50.016;20.002;2022-07-10T00:07:12;98941.00;;;14.54;94.05
34921;BME280;21128;50.016;20.002;2022-07-10T00:09:39;98943.81;;;14.52;94.85
34921;BME280;21128;50.016;20.002;2022-07-10T00:12:06;98942.51;;;14.48;96.36
34921;BME280;21128;50.016;20.002;2022-07-10T00:14:32;98947.97;;;14.47;96.45
34921;BME280;21128;50.016;20.002;2022-07-10T00:17:06;98936.67;;;14.45;95.76
34921;BME280;21128;50.016;20.002;2022-07-10T00:19:33;98943.33;;;14.49;95.75
34921;BME280;21128;50.016;20.002;2022-07-10T00:22:00;98942.34;;;14.50;95.84
34921;BME280;21128;50.016;20.002;2022-07-10T00:24:26;98937.70;;;14.52;94.99
34921;BME280;21128;50.016;20.002;2022-07-10T00:26:53;98938.53;;;14.52;95.73
34921;BME280;21128;50.016;20.002;2022-07-10T00:29:26;98939.35;;;14.53;95.97
34921;BME280;21128;50.016;20.002;2022-07-10T00:31:53;98936.88;;;14.51;95.68
34921;BME280;21128;50.016;20.002;2022-07-10T00:34:20;98934.23;;;14.51;96.31
34921;BME280;21128;50.016;20.002;2022-07-10T00:36:47;98930.77;;;14.51;95.98
34921;BME280;21128;50.016;20.002;2022-07-10T00:39:14;98931.42;;;14.53;95.82
34921;BME280;21128;50.016;20.002;2022-07-10T00:41:41;98919.02;;;14.53;96.18
34921;BME280;21128;50.016;20.002;2022-07-10T00:44:07;98918.37;;;14.51;96.07
34921;BME280;21128;50.016;20.002;2022-07-10T00:46:34;98911.44;;;14.50;95.58
34921;BME280;21128;50.016;20.002;2022-07-10T00:49:08;98913.25;;;14.50;96.09
34921;BME280;21128;50.016;20.002;2022-07-10T00:51:36;98901.20;;;14.47;96.18
34921;BME280;21128;50.016;20.002;2022-07-10T00:54:05;98909.41;;;14.44;97.05
34921;BME280;21128;50.016;20.002;2022-07-10T00:56:32;98908.59;;;14.44;96.13
34921;BME280;21128;50.016;20.002;2022-07-10T00:58:59;98907.27;;;14.40;98.55
34921;BME280;21128;50.016;20.002;2022-07-10T01:01:28;98896.02;;;14.37;97.55
34921;BME280;21128;50.016;20.002;2022-07-10T01:03:54;98893.55;;;14.36;98.34
34921;BME280;21128;50.016;20.002;2022-07-10T01:06:21;98889.25;;;14.35;97.44
34921;BME280;21128;50.016;20.002;2022-07-10T01:08:48;98892.55;;;14.37;97.02
34921;BME280;21128;50.016;20.002;2022-07-10T01:11:15;98887.27;;;14.37;97.93
34921;BME280;21128;50.016;20.002;2022-07-10T01:13:43;98891.72;;;14.36;97.37
34921;BME280;21128;50.016;20.002;2022-07-10T01:16:11;98893.71;;;14.34;97.70
34921;BME280;21128;50.016;20.002;2022-07-10T01:18:45;98890.08;;;14.35;97.78
34921;BME280;21128;50.016;20.002;2022-07-10T01:23:51;98902.81;;;14.32;99.29
34921;BME280;21128;50.016;20.002;2022-07-10T01:26:19;98894.36;;;14.28;98.62
34921;BME280;21128;50.016;20.002;2022-07-10T01:28:56;98894.36;;;14.28;98.62
34921;BME280;21128;50.016;20.002;2022-07-10T01:31:26;98897.69;;;14.30;98.58
34921;BME280;21128;50.016;20.002;2022-07-10T01:33:54;98894.88;;;14.32;98.03
34921;BME280;21128;50.016;20.002;2022-07-10T01:36:22;98886.78;;;14.33;99.22
34921;BME280;21128;50.016;20.002;2022-07-10T01:38:53;98878.84;;;14.33;98.80
34921;BME280;21128;50.016;20.002;2022-07-10T01:41:21;98882.31;;;14.34;99.22
34921;BME280;21128;50.016;20.002;2022-07-10T01:43:48;98879.67;;;14.34;99.84
34921;BME280;21128;50.016;20.002;2022-07-10T01:46:16;98862.34;;;14.31;99.81
34921;BME280;21128;50.016;20.002;2022-07-10T01:48:43;98866.63;;;14.32;99.08
34921;BME280;21128;50.016;20.002;2022-07-10T01:51:16;98866.28;;;14.27;100.00
34921;BME280;21128;50.016;20.002;2022-07-10T01:53:50;98851.77;;;14.23;100.00
34921;BME280;21128;50.016;20.002;2022-07-10T01:56:17;98856.39;;;14.21;100.00
34921;BME280;21128;50.016;20.002;2022-07-10T01:58:44;98861.81;;;14.20;100.00
34921;BME280;21128;50.016;20.002;2022-07-10T02:01:12;98855.05;;;14.17;100.00
34921;BME280;21128;50.016;20.002;2022-07-10T02:03:39;98851.76;;;14.15;100.00
34921;BME280;21128;50.016;20.002;2022-07-10T02:06:31;98860.16;;;14.11;100.00
34921;BME280;21128;50.016;20.002;2022-07-10T02:08:58;98851.58;;;14.08;100.00
34921;BME280;21128;50.016;20.002;2022-07-10T02:11:25;98845.47;;;14.08;100.00
34921;BME280;21128;50.016;20.002;2022-07-10T02:13:51;98844.81;;;14.06;100.00
34921;BME280;21128;50.016;20.002;2022-07-10T02:16:18;98836.20;;;14.04;100.00
34921;BME280;21128;50.016;20.002;2022-07-10T02:18:45;98831.78;;;14.04;100.00
34921;BME280;21128;50.016;20.002;2022-07-10T02:21:12;98831.78;;;14.04;100.00
34921;BME280;21128;50.016;20.002;2022-07-10T02:23:39;98837.20;;;14.03;100.00
34921;BME280;21128;50.016;20.002;2022-07-10T02:26:07;98829.27;;;14.03;100.00
34921;BME280;21128;50.016;20.002;2022-07-10T02:28:41;98823.34;;;14.01;100.00
34921;BME280;21128;50.016;20.002;2022-07-10T02:31:07;98827.63;;;14.02;100.00
34921;BME280;21128;50.016;20.002;2022-07-10T02:33:34;98818.05;;;14.01;100.00
34921;BME280;21128;50.016;20.002;2022-07-10T02:36:04;98823.98;;;14.03;100.00
34921;BME280;21128;50.016;20.002;2022-07-10T02:38:31;98823.00;;;14.04;100.00
34921;BME280;21128;50.016;20.002;2022-07-10T02:40:58;98829.80;;;14.06;100.00
34921;BME280;21128;50.016;20.002;2022-07-10T02:43:24;98827.14;;;14.06;100.00
34921;BME280;21128;50.016;20.002;2022-07-10T02:45:51;98825.64;;;14.04;100.00
34921;BME280;21128;50.016;20.002;2022-07-10T02:48:18;98828.45;;;14.02;100.00
34921;BME280;21128;50.016;20.002;2022-07-10T02:50:51;98819.70;;;14.02;100.00
34921;BME280;21128;50.016;20.002;2022-07-10T02:53:19;98819.53;;;14.03;100.00
34921;BME280;21128;50.016;20.002;2022-07-10T02:55:52;98822.69;;;14.07;100.00
34921;BME280;21128;50.016;20.002;2022-07-10T02:58:19;98817.06;;;14.10;100.00
34921;BME280;21128;50.016;20.002;2022-07-10T03:00:46;98821.22;;;14.13;100.00
34921;BME280;21128;50.016;20.002;2022-07-10T03:03:13;98822.34;;;14.18;100.00
34921;BME280;21128;50.016;20.002;2022-07-10T03:05:40;98819.40;;;14.21;100.00
34921;BME280;21128;50.016;20.002;2022-07-10T03:08:07;98820.70;;;14.25;100.00
34921;BME280;21128;50.016;20.002;2022-07-10T03:10:41;98815.76;;;14.30;100.00
34921;BME280;21128;50.016;20.002;2022-07-10T03:13:08;98827.46;;;14.36;100.00
34921;BME280;21128;50.016;20.002;2022-07-10T03:15:41;98818.22;;;14.40;100.00
34921;BME280;21128;50.016;20.002;2022-07-10T03:18:08;98815.23;;;14.43;100.00
34921;BME280;21128;50.016;20.002;2022-07-10T03:20:41;98807.84;;;14.47;100.00
34921;BME280;21128;50.016;20.002;2022-07-10T03:23:08;98806.84;;;14.48;100.00
34921;BME280;21128;50.016;20.002;2022-07-10T03:25:35;98808.32;;;14.50;100.00
34921;BME280;21128;50.016;20.002;2022-07-10T03:28:09;98803.51;;;14.54;100.00
34921;BME280;21128;50.016;20.002;2022-07-10T03:30:36;98808.80;;;14.54;100.00
34921;BME280;21128;50.016;20.002;2022-07-10T03:33:02;98809.14;;;14.51;100.00
34921;BME280;21128;50.016;20.002;2022-07-10T03:35:30;98811.14;;;14.49;100.00
34921;BME280;21128;50.016;20.002;2022-07-10T03:38:00;98801.73;;;14.46;100.00
34921;BME280;21128;50.016;20.002;2022-07-10T03:40:27;98802.55;;;14.47;100.00
34921;BME280;21128;50.016;20.002;2022-07-10T03:42:54;98802.55;;;14.47;100.00
34921;BME280;21128;50.016;20.002;2022-07-10T03:45:21;98801.84;;;14.45;100.00
34921;BME280;21128;50.016;20.002;2022-07-10T03:47:47;98799.09;;;14.46;100.00
34921;BME280;21128;50.016;20.002;2022-07-10T03:50:14;98804.20;;;14.48;100.00
34921;BME280;21128;50.016;20.002;2022-07-10T03:52:47;98796.09;;;14.49;100.00
34921;BME280;21128;50.016;20.002;2022-07-10T03:55:20;98798.39;;;14.52;100.00
34921;BME280;21128;50.016;20.002;2022-07-10T03:57:47;98798.91;;;14.56;100.00
34921;BME280;21128;50.016;20.002;2022-07-10T04:00:25;98798.73;;;14.57;100.00
34921;BME280;21128;50.016;20.002;2022-07-10T04:03:00;98797.55;;;14.60;100.00
34921;BME280;21128;50.016;20.002;2022-07-10T04:05:28;98791.95;;;14.63;100.00
34921;BME280;21128;50.016;20.002;2022-07-10T04:07:56;98785.66;;;14.64;100.00
34921;BME280;21128;50.016;20.002;2022-07-10T04:10:25;98783.66;;;14.66;100.00
34921;BME280;21128;50.016;20.002;2022-07-10T04:12:59;98785.96;;;14.69;100.00
34921;BME280;21128;50.016;20.002;2022-07-10T04:15:26;98781.17;;;14.73;100.00
34921;BME280;21128;50.016;20.002;2022-07-10T04:17:53;98776.70;;;14.73;100.00
34921;BME280;21128;50.016;20.002;2022-07-10T04:20:21;98789.58;;;14.76;100.00
34921;BME280;21128;50.016;20.002;2022-07-10T04:22:48;98782.30;;;14.78;100.00
34921;BME280;21128;50.016;20.002;2022-07-10T04:25:16;98786.27;;;14.82;100.00
34921;BME280;21128;50.016;20.002;2022-07-10T04:27:49;98781.63;;;14.84;100.00
34921;BME280;21128;50.016;20.002;2022-07-10T04:30:23;98780.80;;;14.84;100.00
34921;BME280;21128;50.016;20.002;2022-07-10T04:32:49;98787.73;;;14.85;100.00
34921;BME280;21128;50.016;20.002;2022-07-10T04:35:16;98789.38;;;14.86;100.00
34921;BME280;21128;50.016;20.002;2022-07-10T04:37:43;98783.91;;;14.87;100.00
34921;BME280;21128;50.016;20.002;2022-07-10T04:40:10;98781.59;;;14.92;100.00
34921;BME280;21128;50.016;20.002;2022-07-10T04:42:37;98793.50;;;14.97;100.00
34921;BME280;21128;50.016;20.002;2022-07-10T04:45:04;98798.44;;;15.00;100.00
34921;BME280;21128;50.016;20.002;2022-07-10T04:47:31;98782.56;;;15.00;100.00
34921;BME280;21128;50.016;20.002;2022-07-10T04:49:58;98784.86;;;15.03;100.00
34921;BME280;21128;50.016;20.002;2022-07-10T04:52:25;98779.06;;;15.07;100.00
34921;BME280;21128;50.016;20.002;2022-07-10T04:54:59;98782.18;;;15.11;100.00
34921;BME280;21128;50.016;20.002;2022-07-10T04:57:26;98771.41;;;15.12;99.83
34921;BME280;21128;50.016;20.002;2022-07-10T04:59:53;98782.18;;;15.11;99.48
34921;BME280;21128;50.016;20.002;2022-07-10T05:02:20;98788.12;;;15.13;99.29
34921;BME280;21128;50.016;20.002;2022-07-10T05:04:47;98784.36;;;15.07;99.02
34921;BME280;21128;50.016;20.002;2022-07-10T05:07:13;98779.89;;;15.08;98.65
34921;BME280;21128;50.016;20.002;2022-07-10T05:09:41;98787.83;;;15.08;98.70
34921;BME280;21128;50.016;20.002;2022-07-10T05:12:10;98789.97;;;15.04;98.34
34921;BME280;21128;50.016;20.002;2022-07-10T05:14:37;98782.56;;;15.00;98.02
34921;BME280;21128;50.016;20.002;2022-07-10T05:17:04;98777.95;;;14.93;97.72
34921;BME280;21128;50.016;20.002;2022-07-10T05:19:30;98781.59;;;14.92;97.67
34921;BME280;21128;50.016;20.002;2022-07-10T05:22:05;98775.30;;;14.93;97.63
34921;BME280;21128;50.016;20.002;2022-07-10T05:24:32;98790.17;;;14.95;97.22
34921;BME280;21128;50.016;20.002;2022-07-10T05:26:59;98785.71;;;14.95;96.88
34921;BME280;21128;50.016;20.002;2022-07-10T05:29:32;98778.27;;;14.99;96.79
34921;BME280;21128;50.016;20.002;2022-07-10T05:32:06;98776.92;;;15.03;96.54
34921;BME280;21128;50.016;20.002;2022-07-10T05:34:39;98779.89;;;15.08;96.48
34921;BME280;21128;50.016;20.002;2022-07-10T05:37:06;98785.61;;;15.19;96.02
34921;BME280;21128;50.016;20.002;2022-07-10T05:39:33;98781.42;;;15.33;95.59
34921;BME280;21128;50.016;20.002;2022-07-10T05:42:00;98781.37;;;15.41;95.54
34921;BME280;21128;50.016;20.002;2022-07-10T05:44:27;98769.42;;;15.45;94.57
34921;BME280;21128;50.016;20.002;2022-07-10T05:46:54;98774.39;;;15.48;94.61
34921;BME280;21128;50.016;20.002;2022-07-10T05:49:24;98782.15;;;15.50;93.79
34921;BME280;21128;50.016;20.002;2022-07-10T05:51:50;98783.61;;;15.53;94.00
34921;BME280;21128;50.016;20.002;2022-07-10T05:54:17;98785.75;;;15.57;93.84
34921;BME280;21128;50.016;20.002;2022-07-10T05:56:44;98790.87;;;15.59;93.71
34921;BME280;21128;50.016;20.002;2022-07-10T05:59:11;98781.97;;;15.52;92.90
34921;BME280;21128;50.016;20.002;2022-07-10T06:01:38;98780.19;;;15.44;92.77
34921;BME280;21128;50.016;20.002;2022-07-10T06:04:05;98793.14;;;15.39;92.73
34921;BME280;21128;50.016;20.002;2022-07-10T06:06:32;98781.55;;;15.40;93.06
34921;BME280;21128;50.016;20.002;2022-07-10T06:08:58;98781.66;;;15.46;92.58
34921;BME280;21128;50.016;20.002;2022-07-10T06:11:25;98782.61;;;15.54;92.95
34921;BME280;21128;50.016;20.002;2022-07-10T06:13:52;98780.09;;;15.60;92.87
34921;BME280;21128;50.016;20.002;2022-07-10T06:16:19;98788.72;;;15.62;92.44
34921;BME280;21128;50.016;20.002;2022-07-10T06:18:46;98786.89;;;15.63;91.59
34921;BME280;21128;50.016;20.002;2022-07-10T06:21:19;98785.73;;;15.65;91.83
34921;BME280;21128;50.016;20.002;2022-07-10T06:23:54;98782.84;;;15.75;91.53
34921;BME280;21128;50.016;20.002;2022-07-10T06:26:27;98779.77;;;15.86;91.12
34921;BME280;21128;50.016;20.002;2022-07-10T06:29:07;98774.30;;;15.88;91.18
34921;BME280;21128;50.016;20.002;2022-07-10T06:31:34;98782.30;;;16.02;89.84
34921;BME280;21128;50.016;20.002;2022-07-10T06:34:00;98778.23;;;16.15;89.72
34921;BME280;21128;50.016;20.002;2022-07-10T06:36:27;98774.84;;;16.21;88.27
34921;BME280;21128;50.016;20.002;2022-07-10T06:38:54;98784.81;;;16.19;87.73
34921;BME280;21128;50.016;20.002;2022-07-10T06:41:21;98777.88;;;16.18;87.77
34921;BME280;21128;50.016;20.002;2022-07-10T06:43:48;98781.98;;;16.20;87.28
34921;BME280;21128;50.016;20.002;2022-07-10T06:46:14;98774.03;;;16.20;85.92
34921;BME280;21128;50.016;20.002;2022-07-10T06:48:41;98765.63;;;16.17;84.58
34921;BME280;21128;50.016;20.002;2022-07-10T06:51:08;98768.98;;;16.11;84.74
34921;BME280;21128;50.016;20.002;2022-07-10T06:53:35;98770.36;;;16.07;84.44
34921;BME280;21128;50.016;20.002;2022-07-10T06:56:02;98772.83;;;16.08;84.18
34921;BME280;21128;50.016;20.002;2022-07-10T06:58:35;98764.73;;;16.24;83.35
34921;BME280;21128;50.016;20.002;2022-07-10T07:01:02;98759.09;;;16.42;82.94
34921;BME280;21128;50.016;20.002;2022-07-10T07:03:29;98753.51;;;16.52;80.97
34921;BME280;21128;50.016;20.002;2022-07-10T07:05:56;98764.49;;;16.49;78.20
34921;BME280;21128;50.016;20.002;2022-07-10T07:08:30;98744.44;;;16.46;76.86
34921;BME280;21128;50.016;20.002;2022-07-10T07:10:57;98770.14;;;16.46;75.52
34921;BME280;21128;50.016;20.002;2022-07-10T07:13:24;98759.19;;;16.49;74.54
34921;BME280;21128;50.016;20.002;2022-07-10T07:15:50;98762.39;;;16.59;72.91
34921;BME280;21128;50.016;20.002;2022-07-10T07:18:26;98773.58;;;16.69;73.44
34921;BME280;21128;50.016;20.002;2022-07-10T07:20:59;98780.54;;;16.85;73.09
34921;BME280;21128;50.016;20.002;2022-07-10T07:23:51;98770.45;;;17.10;71.93
34921;BME280;21128;50.016;20.002;2022-07-10T07:26:18;98766.19;;;17.30;70.07
34921;BME280;21128;50.016;20.002;2022-07-10T07:28:58;98772.68;;;17.42;69.79
34921;BME280;21128;50.016;20.002;2022-07-10T07:31:25;98778.94;;;17.56;69.64
34921;BME280;21128;50.016;20.002;2022-07-10T07:33:52;98774.52;;;17.63;67.40
34921;BME280;21128;50.016;20.002;2022-07-10T07:36:25;98783.70;;;17.61;66.74
34921;BME280;21128;50.016;20.002;2022-07-10T07:38:52;98784.41;;;17.69;66.36
34921;BME280;21128;50.016;20.002;2022-07-10T07:41:19;98777.38;;;17.62;67.41
34921;BME280;21128;50.016;20.002;2022-07-10T07:43:45;98784.59;;;17.68;66.99
34921;BME280;21128;50.016;20.002;2022-07-10T07:46:12;98788.90;;;17.69;63.51
34921;BME280;21128;50.016;20.002;2022-07-10T07:48:39;98781.13;;;17.67;64.81
34921;BME280;21128;50.016;20.002;2022-07-10T07:51:06;98784.80;;;17.66;63.33
34921;BME280;21128;50.016;20.002;2022-07-10T07:53:33;98770.84;;;17.64;63.50
34921;BME280;21128;50.016;20.002;2022-07-10T07:56:00;98785.46;;;17.54;64.31
34921;BME280;21128;50.016;20.002;2022-07-10T07:58:26;98785.02;;;17.50;65.80
34921;BME280;21128;50.016;20.002;2022-07-10T08:00:53;98778.42;;;17.46;64.26
34921;BME280;21128;50.016;20.002;2022-07-10T08:03:20;98785.77;;;17.44;65.42
34921;BME280;21128;50.016;20.002;2022-07-10T08:05:47;98786.86;;;17.50;65.88
34921;BME280;21128;50.016;20.002;2022-07-10T08:08:15;98789.76;;;17.55;64.16
34921;BME280;21128;50.016;20.002;2022-07-10T08:10:41;98788.23;;;17.45;62.28
34921;BME280;21128;50.016;20.002;2022-07-10T08:13:08;98788.34;;;17.37;62.50
34921;BME280;21128;50.016;20.002;2022-07-10T08:15:35;98783.30;;;17.42;64.43
34921;BME280;21128;50.016;20.002;2022-07-10T08:18:08;98775.73;;;17.61;62.57
34921;BME280;21128;50.016;20.002;2022-07-10T08:20:35;98779.48;;;17.66;62.00
34921;BME280;21128;50.016;20.002;2022-07-10T08:23:02;98784.94;;;17.80;62.92
34921;BME280;21128;50.016;20.002;2022-07-10T08:25:29;98775.59;;;17.84;61.25
34921;BME280;21128;50.016;20.002;2022-07-10T08:28:08;98787.98;;;17.77;61.54
34921;BME280;21128;50.016;20.002;2022-07-10T08:30:38;98781.94;;;17.68;62.06
34921;BME280;21128;50.016;20.002;2022-07-10T08:33:05;98786.36;;;17.61;60.91
34921;BME280;21128;50.016;20.002;2022-07-10T08:35:38;98765.11;;;17.61;60.82
34921;BME280;21128;50.016;20.002;2022-07-10T08:38:08;98784.72;;;17.60;60.64
34921;BME280;21128;50.016;20.002;2022-07-10T08:40:35;98779.76;;;17.57;61.89
34921;BME280;21128;50.016;20.002;2022-07-10T08:43:05;98784.33;;;17.63;61.66
34921;BME280;21128;50.016;20.002;2022-07-10T08:45:33;98786.70;;;17.72;61.20
34921;BME280;21128;50.016;20.002;2022-07-10T08:48:03;98776.77;;;17.81;62.14
34921;BME280;21128;50.016;20.002;2022-07-10T08:50:33;98790.88;;;17.82;61.43
34921;BME280;21128;50.016;20.002;2022-07-10T08:53:16;98793.23;;;17.70;59.03
34921;BME280;21128;50.016;20.002;2022-07-10T08:55:46;98807.18;;;17.57;60.06
34921;BME280;21128;50.016;20.002;2022-07-10T08:58:13;98806.28;;;17.50;59.65
34921;BME280;21128;50.016;20.002;2022-07-10T09:00:40;98801.42;;;17.39;60.71
34921;BME280;21128;50.016;20.002;2022-07-10T09:03:20;98801.92;;;17.28;61.35
34921;BME280;21128;50.016;20.002;2022-07-10T09:05:47;98804.67;;;17.20;63.03
34921;BME280;21128;50.016;20.002;2022-07-10T09:08:28;98805.30;;;17.22;63.19
34921;BME280;21128;50.016;20.002;2022-07-10T09:11:17;98799.64;;;17.25;63.94
34921;BME280;21128;50.016;20.002;2022-07-10T09:14:02;98797.59;;;17.41;63.93
34921;BME280;21128;50.016;20.002;2022-07-10T09:16:32;98792.67;;;17.75;62.78
34921;BME280;21128;50.016;20.002;2022-07-10T09:19:19;98787.28;;;17.89;59.33
34921;BME280;21128;50.016;20.002;2022-07-10T09:21:54;98802.92;;;17.78;59.01
34921;BME280;21128;50.016;20.002;2022-07-10T09:24:22;98769.59;;;17.60;56.91
34921;BME280;21128;50.016;20.002;2022-07-10T09:29:33;98810.17;;;17.18;57.94
34921;BME280;21128;50.016;20.002;2022-07-10T09:32:21;98811.37;;;17.15;58.66
34921;BME280;21128;50.016;20.002;2022-07-10T09:34:50;98810.52;;;17.30;58.02
34921;BME280;21128;50.016;20.002;2022-07-10T09:37:43;98807.31;;;17.34;57.35
34921;BME280;21128;50.016;20.002;2022-07-10T09:40:10;98809.97;;;17.34;56.81
34921;BME280;21128;50.016;20.002;2022-07-10T09:42:41;98807.75;;;17.38;57.57
34921;BME280;21128;50.016;20.002;2022-07-10T09:45:18;98812.33;;;17.44;58.12
34921;BME280;21128;50.016;20.002;2022-07-10T09:50:32;98801.27;;;18.19;58.41
34921;BME280;21128;50.016;20.002;2022-07-10T09:53:05;98798.61;;;18.47;57.48
34921;BME280;21128;50.016;20.002;2022-07-10T09:55:34;98809.73;;;18.57;57.03
34921;BME280;21128;50.016;20.002;2022-07-10T09:58:04;98801.19;;;18.62;56.23
34921;BME280;21128;50.016;20.002;2022-07-10T10:00:33;98799.34;;;18.63;56.78
34921;BME280;21128;50.016;20.002;2022-07-10T10:03:09;98810.13;;;18.54;56.78
34921;BME280;21128;50.016;20.002;2022-07-10T10:05:55;98812.52;;;18.43;54.52
34921;BME280;21128;50.016;20.002;2022-07-10T10:08:27;98809.24;;;18.19;54.33
34921;BME280;21128;50.016;20.002;2022-07-10T10:10:57;98798.87;;;18.03;53.89
34921;BME280;21128;50.016;20.002;2022-07-10T10:13:30;98796.97;;;17.97;54.70
34921;BME280;21128;50.016;20.002;2022-07-10T10:15:57;98790.14;;;18.09;54.62
34921;BME280;21128;50.016;20.002;2022-07-10T10:18:26;98784.16;;;18.28;54.64
34921;BME280;21128;50.016;20.002;2022-07-10T10:20:54;98781.66;;;18.76;55.15
34921;BME280;21128;50.016;20.002;2022-07-10T10:23:23;98769.99;;;19.19;53.44
34921;BME280;21128;50.016;20.002;2022-07-10T10:25:57;98778.94;;;19.59;51.57
34921;BME280;21128;50.016;20.002;2022-07-10T10:28:37;98770.19;;;19.91;52.20
34921;BME280;21128;50.016;20.002;2022-07-10T10:31:04;98768.97;;;19.87;51.11
34921;BME280;21128;50.016;20.002;2022-07-10T10:36:03;98766.98;;;19.41;49.80
34921;BME280;21128;50.016;20.002;2022-07-10T10:41:27;98773.07;;;18.81;49.41
34921;BME280;21128;50.016;20.002;2022-07-10T10:46:34;98789.13;;;18.10;51.18
34921;BME280;21128;50.016;20.002;2022-07-10T10:49:05;98789.63;;;17.78;50.96
34921;BME280;21128;50.016;20.002;2022-07-10T10:52:02;98791.23;;;17.57;51.64
34921;BME280;21128;50.016;20.002;2022-07-10T10:59:54;98786.63;;;17.15;54.41
34921;BME280;21128;50.016;20.002;2022-07-10T11:08:14;98795.48;;;17.37;53.61
34921;BME280;21128;50.016;20.002;2022-07-10T11:10:43;98804.52;;;17.57;52.39
34921;BME280;21128;50.016;20.002;2022-07-10T11:13:17;98801.28;;;17.77;51.19
34921;BME280;21128;50.016;20.002;2022-07-10T11:15:49;98795.81;;;18.06;51.10
34921;BME280;21128;50.016;20.002;2022-07-10T11:18:20;98791.76;;;18.60;49.43
34921;BME280;21128;50.016;20.002;2022-07-10T11:20:52;98799.66;;;19.09;49.75
34921;BME280;21128;50.016;20.002;2022-07-10T11:26:13;98783.71;;;19.83;48.36
34921;BME280;21128;50.016;20.002;2022-07-10T11:29:02;98780.27;;;20.22;48.49
34921;BME280;21128;50.016;20.002;2022-07-10T11:31:29;98800.16;;;20.33;47.98
34921;BME280;21128;50.016;20.002;2022-07-10T11:33:57;98780.05;;;20.24;46.45
34921;BME280;21128;50.016;20.002;2022-07-10T11:36:26;98794.81;;;19.87;46.94
34921;BME280;21128;50.016;20.002;2022-07-10T11:38:59;98786.20;;;19.85;48.33
34921;BME280;21128;50.016;20.002;2022-07-10T11:41:26;98795.19;;;19.71;47.56
34921;BME280;21128;50.016;20.002;2022-07-10T11:43:58;98797.95;;;19.43;48.36
34921;BME280;21128;50.016;20.002;2022-07-10T11:46:35;98796.80;;;19.10;48.28
34921;BME280;21128;50.016;20.002;2022-07-10T11:49:05;98793.17;;;18.83;49.74
34921;BME280;21128;50.016;20.002;2022-07-10T11:51:35;98795.98;;;18.75;50.39
34921;BME280;21128;50.016;20.002;2022-07-10T11:56:50;98796.30;;;18.38;49.75
34921;BME280;21128;50.016;20.002;2022-07-10T11:59:24;98782.91;;;18.24;48.19
34921;BME280;21128;50.016;20.002;2022-07-10T12:01:53;98794.24;;;18.12;48.99
34921;BME280;21128;50.016;20.002;2022-07-10T12:04:21;98793.03;;;18.14;48.24
34921;BME280;21128;50.016;20.002;2022-07-10T12:06:57;98796.57;;;18.21;47.65
34921;BME280;21128;50.016;20.002;2022-07-10T12:09:25;98792.05;;;18.43;47.33
34921;BME280;21128;50.016;20.002;2022-07-10T12:12:05;98788.92;;;18.96;47.84
34921;BME280;21128;50.016;20.002;2022-07-10T12:14:33;98774.17;;;19.48;46.95
34921;BME280;21128;50.016;20.002;2022-07-10T12:17:10;98782.63;;;19.58;45.51
34921;BME280;21128;50.016;20.002;2022-07-10T12:19:38;98793.17;;;19.86;45.25
34921;BME280;21128;50.016;20.002;2022-07-10T12:22:06;98784.78;;;20.22;44.85
34921;BME280;21128;50.016;20.002;2022-07-10T12:24:33;98782.95;;;20.49;44.20
34921;BME280;21128;50.016;20.002;2022-07-10T12:27:07;98766.50;;;20.59;42.79
34921;BME280;21128;50.016;20.002;2022-07-10T12:30:00;98787.67;;;20.54;42.39
34921;BME280;21128;50.016;20.002;2022-07-10T12:32:28;98783.94;;;20.74;42.96
34921;BME280;21128;50.016;20.002;2022-07-10T12:34:59;98781.19;;;21.01;42.69
34921;BME280;21128;50.016;20.002;2022-07-10T12:37:25;98782.97;;;21.27;40.76
34921;BME280;21128;50.016;20.002;2022-07-10T12:39:53;98783.59;;;21.22;41.27
34921;BME280;21128;50.016;20.002;2022-07-10T12:42:28;98774.71;;;21.35;40.73
34921;BME280;21128;50.016;20.002;2022-07-10T12:45:10;98776.27;;;21.56;41.54
34921;BME280;21128;50.016;20.002;2022-07-10T12:47:47;98783.25;;;21.57;39.06
34921;BME280;21128;50.016;20.002;2022-07-10T12:50:24;98784.40;;;21.36;40.83
34921;BME280;21128;50.016;20.002;2022-07-10T12:53:11;98784.41;;;21.23;41.10
34921;BME280;21128;50.016;20.002;2022-07-10T12:55:38;98786.72;;;21.13;41.32
34921;BME280;21128;50.016;20.002;2022-07-10T12:58:10;98779.41;;;20.75;40.74
34921;BME280;21128;50.016;20.002;2022-07-10T13:00:46;98785.01;;;20.54;41.33
34921;BME280;21128;50.016;20.002;2022-07-10T13:03:19;98789.74;;;20.45;41.06
34921;BME280;21128;50.016;20.002;2022-07-10T13:05:46;98784.35;;;19.99;42.09
34921;BME280;21128;50.016;20.002;2022-07-10T13:08:16;98767.31;;;19.80;42.23
34921;BME280;21128;50.016;20.002;2022-07-10T13:10:51;98788.41;;;19.75;43.14
34921;BME280;21128;50.016;20.002;2022-07-10T13:13:19;98776.73;;;19.69;43.76
34921;BME280;21128;50.016;20.002;2022-07-10T13:15:46;98779.64;;;19.94;44.00
34921;BME280;21128;50.016;20.002;2022-07-10T13:18:22;98791.13;;;20.08;44.75
34921;BME280;21128;50.016;20.002;2022-07-10T13:20:57;98795.03;;;20.25;45.12
34921;BME280;21128;50.016;20.002;2022-07-10T13:23:31;98792.80;;;20.48;45.02
34921;BME280;21128;50.016;20.002;2022-07-10T13:25:59;98802.23;;;20.58;44.08
34921;BME280;21128;50.016;20.002;2022-07-10T13:28:49;98798.14;;;20.35;43.53
34921;BME280;21128;50.016;20.002;2022-07-10T13:31:16;98790.52;;;20.06;43.65
34921;BME280;21128;50.016;20.002;2022-07-10T13:33:43;98804.66;;;19.86;43.37
34921;BME280;21128;50.016;20.002;2022-07-10T13:36:15;98819.71;;;19.53;43.85